sensor_id;sensor_type;location;lat;lon;timestamp;P1;durP1;ratioP1;P2;durP2;ratioP2
7957;SDS011;4024;52.172;5.378;2023-12-04T00:01:42;23.77;;;15.00;;
7957;SDS011;4024;52.172;5.378;2023-12-04T00:04:10;24.77;;;15.83;;
7957;SDS011;4024;52.172;5.378;2023-12-04T00:06:35;27.17;;;16.27;;
7957;SDS011;4024;52.172;5.378;2023-12-04T00:09:01;20.83;;;14.10;;
7957;SDS011;4024;52.172;5.378;2023-12-04T00:11:26;22.43;;;14.80;;
7957;SDS011;4024;52.172;5.378;2023-12-04T00:13:52;24.50;;;15.60;;
7957;SDS011;4024;52.172;5.378;2023-12-04T00:16:18;22.63;;;15.40;;
7957;SDS011;4024;52.172;5.378;2023-12-04T00:18:43;21.40;;;14.63;;
7957;SDS011;4024;52.172;5.378;2023-12-04T00:21:09;21.80;;;14.57;;
7957;SDS011;4024;52.172;5.378;2023-12-04T00:23:35;25.30;;;15.03;;
7957;SDS011;4024;52.172;5.378;2023-12-04T00:26:00;24.70;;;15.40;;
7957;SDS011;4024;52.172;5.378;2023-12-04T00:28:27;23.47;;;15.67;;
7957;SDS011;4024;52.172;5.378;2023-12-04T00:30:53;23.20;;;15.10;;
7957;SDS011;4024;52.172;5.378;2023-12-04T00:33:19;26.70;;;16.63;;
7957;SDS011;4024;52.172;5.378;2023-12-04T00:35:45;24.73;;;15.63;;
7957;SDS011;4024;52.172;5.378;2023-12-04T00:38:11;21.70;;;14.67;;
7957;SDS011;4024;52.172;5.378;2023-12-04T00:40:36;22.87;;;15.30;;
7957;SDS011;4024;52.172;5.378;2023-12-04T00:43:02;24.83;;;15.73;;
7957;SDS011;4024;52.172;5.378;2023-12-04T00:45:27;26.87;;;15.13;;
7957;SDS011;4024;52.172;5.378;2023-12-04T00:47:53;23.97;;;15.50;;
7957;SDS011;4024;52.172;5.378;2023-12-04T00:50:18;25.47;;;15.67;;
7957;SDS011;4024;52.172;5.378;2023-12-04T00:52:44;24.17;;;14.80;;
7957;SDS011;4024;52.172;5.378;2023-12-04T00:55:10;24.90;;;16.80;;
7957;SDS011;4024;52.172;5.378;2023-12-04T00:57:35;25.40;;;15.70;;
7957;SDS011;4024;52.172;5.378;2023-12-04T01:00:01;26.33;;;16.57;;
7957;SDS011;4024;52.172;5.378;2023-12-04T01:02:27;26.57;;;16.93;;
7957;SDS011;4024;52.172;5.378;2023-12-04T01:04:52;25.57;;;16.53;;
7957;SDS011;4024;52.172;5.378;2023-12-04T01:07:18;25.70;;;16.73;;
7957;SDS011;4024;52.172;5.378;2023-12-04T01:09:44;25.23;;;16.70;;
7957;SDS011;4024;52.172;5.378;2023-12-04T01:12:09;24.77;;;15.53;;
7957;SDS011;4024;52.172;5.378;2023-12-04T01:14:35;27.23;;;17.00;;
7957;SDS011;4024;52.172;5.378;2023-12-04T01:17:03;26.70;;;16.73;;
7957;SDS011;4024;52.172;5.378;2023-12-04T01:19:29;28.03;;;17.30;;
7957;SDS011;4024;52.172;5.378;2023-12-04T01:21:54;27.10;;;16.20;;
7957;SDS011;4024;52.172;5.378;2023-12-04T01:24:20;25.57;;;16.43;;
7957;SDS011;4024;52.172;5.378;2023-12-04T01:26:46;26.70;;;16.30;;
7957;SDS011;4024;52.172;5.378;2023-12-04T01:29:11;26.43;;;17.40;;
7957;SDS011;4024;52.172;5.378;2023-12-04T01:31:37;28.13;;;18.00;;
7957;SDS011;4024;52.172;5.378;2023-12-04T01:34:03;29.23;;;17.73;;
7957;SDS011;4024;52.172;5.378;2023-12-04T01:36:28;28.30;;;18.07;;
7957;SDS011;4024;52.172;5.378;2023-12-04T01:38:54;26.73;;;16.47;;
7957;SDS011;4024;52.172;5.378;2023-12-04T01:41:20;28.87;;;17.60;;
7957;SDS011;4024;52.172;5.378;2023-12-04T01:43:46;30.47;;;17.10;;
7957;SDS011;4024;52.172;5.378;2023-12-04T01:46:11;28.10;;;17.77;;
7957;SDS011;4024;52.172;5.378;2023-12-04T01:48:40;27.47;;;17.40;;
7957;SDS011;4024;52.172;5.378;2023-12-04T01:51:07;30.53;;;19.13;;
7957;SDS011;4024;52.172;5.378;2023-12-04T01:53:35;29.80;;;17.33;;
7957;SDS011;4024;52.172;5.378;2023-12-04T01:56:03;31.13;;;17.67;;
7957;SDS011;4024;52.172;5.378;2023-12-04T01:58:39;30.90;;;18.77;;
7957;SDS011;4024;52.172;5.378;2023-12-04T02:01:04;30.90;;;17.87;;
7957;SDS011;4024;52.172;5.378;2023-12-04T02:03:30;27.93;;;17.53;;
7957;SDS011;4024;52.172;5.378;2023-12-04T02:05:57;30.10;;;18.57;;
7957;SDS011;4024;52.172;5.378;2023-12-04T02:08:25;28.33;;;18.20;;
7957;SDS011;4024;52.172;5.378;2023-12-04T02:10:51;26.87;;;17.93;;
7957;SDS011;4024;52.172;5.378;2023-12-04T02:13:17;30.27;;;18.50;;
7957;SDS011;4024;52.172;5.378;2023-12-04T02:15:43;29.53;;;19.10;;
7957;SDS011;4024;52.172;5.378;2023-12-04T02:18:10;26.70;;;16.97;;
7957;SDS011;4024;52.172;5.378;2023-12-04T02:20:36;27.80;;;17.23;;
7957;SDS011;4024;52.172;5.378;2023-12-04T02:23:02;27.83;;;17.97;;
7957;SDS011;4024;52.172;5.378;2023-12-04T02:25:28;25.83;;;16.90;;
7957;SDS011;4024;52.172;5.378;2023-12-04T02:27:55;31.30;;;19.20;;
7957;SDS011;4024;52.172;5.378;2023-12-04T02:30:25;31.10;;;18.67;;
7957;SDS011;4024;52.172;5.378;2023-12-04T02:32:53;30.47;;;18.73;;
7957;SDS011;4024;52.172;5.378;2023-12-04T02:35:23;29.07;;;19.03;;
7957;SDS011;4024;52.172;5.378;2023-12-04T02:37:52;28.53;;;17.10;;
7957;SDS011;4024;52.172;5.378;2023-12-04T02:40:18;30.07;;;18.13;;
7957;SDS011;4024;52.172;5.378;2023-12-04T02:42:45;26.70;;;17.23;;
7957;SDS011;4024;52.172;5.378;2023-12-04T02:45:10;28.13;;;18.23;;
7957;SDS011;4024;52.172;5.378;2023-12-04T02:47:36;27.77;;;17.07;;
7957;SDS011;4024;52.172;5.378;2023-12-04T02:50:02;29.50;;;17.20;;
7957;SDS011;4024;52.172;5.378;2023-12-04T02:52:28;27.93;;;17.87;;
7957;SDS011;4024;52.172;5.378;2023-12-04T02:54:53;27.03;;;17.20;;
7957;SDS011;4024;52.172;5.378;2023-12-04T02:57:19;25.50;;;16.70;;
7957;SDS011;4024;52.172;5.378;2023-12-04T02:59:45;24.40;;;16.40;;
7957;SDS011;4024;52.172;5.378;2023-12-04T03:02:11;25.60;;;16.53;;
7957;SDS011;4024;52.172;5.378;2023-12-04T03:04:36;28.37;;;17.43;;
7957;SDS011;4024;52.172;5.378;2023-12-04T03:07:02;25.67;;;17.43;;
7957;SDS011;4024;52.172;5.378;2023-12-04T03:09:29;25.73;;;16.83;;
7957;SDS011;4024;52.172;5.378;2023-12-04T03:11:54;28.43;;;17.57;;
7957;SDS011;4024;52.172;5.378;2023-12-04T03:14:20;28.53;;;18.33;;
7957;SDS011;4024;52.172;5.378;2023-12-04T03:16:45;25.40;;;16.43;;
7957;SDS011;4024;52.172;5.378;2023-12-04T03:19:11;27.40;;;17.00;;
7957;SDS011;4024;52.172;5.378;2023-12-04T03:21:36;25.37;;;16.10;;
7957;SDS011;4024;52.172;5.378;2023-12-04T03:24:02;24.10;;;16.83;;
7957;SDS011;4024;52.172;5.378;2023-12-04T03:26:28;27.50;;;17.93;;
7957;SDS011;4024;52.172;5.378;2023-12-04T03:28:53;25.47;;;16.60;;
7957;SDS011;4024;52.172;5.378;2023-12-04T03:31:19;24.00;;;16.13;;
7957;SDS011;4024;52.172;5.378;2023-12-04T03:33:46;28.23;;;16.90;;
7957;SDS011;4024;52.172;5.378;2023-12-04T03:36:11;27.33;;;16.73;;
7957;SDS011;4024;52.172;5.378;2023-12-04T03:38:37;26.87;;;16.97;;
7957;SDS011;4024;52.172;5.378;2023-12-04T03:41:03;27.00;;;17.23;;
7957;SDS011;4024;52.172;5.378;2023-12-04T03:43:28;24.73;;;16.17;;
7957;SDS011;4024;52.172;5.378;2023-12-04T03:45:54;26.90;;;17.57;;
7957;SDS011;4024;52.172;5.378;2023-12-04T03:48:19;28.43;;;17.50;;
7957;SDS011;4024;52.172;5.378;2023-12-04T03:50:45;25.60;;;16.17;;
7957;SDS011;4024;52.172;5.378;2023-12-04T03:53:11;26.87;;;16.23;;
7957;SDS011;4024;52.172;5.378;2023-12-04T03:55:36;23.40;;;15.97;;
7957;SDS011;4024;52.172;5.378;2023-12-04T03:58:02;29.27;;;16.53;;
7957;SDS011;4024;52.172;5.378;2023-12-04T04:00:28;26.60;;;16.27;;
7957;SDS011;4024;52.172;5.378;2023-12-04T04:02:54;25.83;;;16.07;;
7957;SDS011;4024;52.172;5.378;2023-12-04T04:05:19;25.10;;;16.43;;
7957;SDS011;4024;52.172;5.378;2023-12-04T04:07:45;22.60;;;15.60;;
7957;SDS011;4024;52.172;5.378;2023-12-04T04:10:11;24.77;;;14.97;;
7957;SDS011;4024;52.172;5.378;2023-12-04T04:12:37;23.17;;;15.20;;
7957;SDS011;4024;52.172;5.378;2023-12-04T04:15:03;21.90;;;14.90;;
7957;SDS011;4024;52.172;5.378;2023-12-04T04:17:28;24.07;;;15.77;;
7957;SDS011;4024;52.172;5.378;2023-12-04T04:19:54;23.33;;;14.63;;
7957;SDS011;4024;52.172;5.378;2023-12-04T04:22:20;24.93;;;16.37;;
7957;SDS011;4024;52.172;5.378;2023-12-04T04:24:46;24.63;;;15.77;;
7957;SDS011;4024;52.172;5.378;2023-12-04T04:27:12;21.53;;;13.93;;
7957;SDS011;4024;52.172;5.378;2023-12-04T04:29:37;25.90;;;14.60;;
7957;SDS011;4024;52.172;5.378;2023-12-04T04:32:03;22.20;;;14.17;;
7957;SDS011;4024;52.172;5.378;2023-12-04T04:34:30;27.43;;;15.10;;
7957;SDS011;4024;52.172;5.378;2023-12-04T04:36:56;25.23;;;15.73;;
7957;SDS011;4024;52.172;5.378;2023-12-04T04:39:21;23.47;;;14.70;;
7957;SDS011;4024;52.172;5.378;2023-12-04T04:41:48;20.73;;;13.73;;
7957;SDS011;4024;52.172;5.378;2023-12-04T04:44:14;22.60;;;15.00;;
7957;SDS011;4024;52.172;5.378;2023-12-04T04:46:40;21.87;;;14.77;;
7957;SDS011;4024;52.172;5.378;2023-12-04T04:49:05;22.17;;;14.53;;
7957;SDS011;4024;52.172;5.378;2023-12-04T04:51:31;23.23;;;14.83;;
7957;SDS011;4024;52.172;5.378;2023-12-04T04:53:58;21.00;;;13.40;;
7957;SDS011;4024;52.172;5.378;2023-12-04T04:56:24;21.43;;;14.93;;
7957;SDS011;4024;52.172;5.378;2023-12-04T04:58:50;22.27;;;14.80;;
7957;SDS011;4024;52.172;5.378;2023-12-04T05:01:15;23.47;;;14.43;;
7957;SDS011;4024;52.172;5.378;2023-12-04T05:03:41;21.83;;;14.47;;
7957;SDS011;4024;52.172;5.378;2023-12-04T05:06:07;22.47;;;14.33;;
7957;SDS011;4024;52.172;5.378;2023-12-04T05:08:33;21.37;;;14.70;;
7957;SDS011;4024;52.172;5.378;2023-12-04T05:10:58;22.20;;;13.87;;
7957;SDS011;4024;52.172;5.378;2023-12-04T05:13:24;23.03;;;14.83;;
7957;SDS011;4024;52.172;5.378;2023-12-04T05:15:49;22.47;;;14.70;;
7957;SDS011;4024;52.172;5.378;2023-12-04T05:18:15;23.07;;;14.80;;
7957;SDS011;4024;52.172;5.378;2023-12-04T05:20:41;23.13;;;14.07;;
7957;SDS011;4024;52.172;5.378;2023-12-04T05:23:06;21.60;;;14.43;;
7957;SDS011;4024;52.172;5.378;2023-12-04T05:25:32;22.30;;;14.07;;
7957;SDS011;4024;52.172;5.378;2023-12-04T05:27:57;21.37;;;13.47;;
7957;SDS011;4024;52.172;5.378;2023-12-04T05:30:23;20.73;;;13.23;;
7957;SDS011;4024;52.172;5.378;2023-12-04T05:32:49;20.47;;;14.07;;
7957;SDS011;4024;52.172;5.378;2023-12-04T05:35:15;21.27;;;14.23;;
7957;SDS011;4024;52.172;5.378;2023-12-04T05:37:41;19.90;;;14.10;;
7957;SDS011;4024;52.172;5.378;2023-12-04T05:40:07;20.27;;;13.27;;
7957;SDS011;4024;52.172;5.378;2023-12-04T05:42:33;19.97;;;12.53;;
7957;SDS011;4024;52.172;5.378;2023-12-04T05:44:59;20.57;;;13.87;;
7957;SDS011;4024;52.172;5.378;2023-12-04T05:47:25;20.27;;;13.20;;
7957;SDS011;4024;52.172;5.378;2023-12-04T05:49:51;19.40;;;12.83;;
7957;SDS011;4024;52.172;5.378;2023-12-04T05:52:17;16.57;;;12.17;;
7957;SDS011;4024;52.172;5.378;2023-12-04T05:54:42;19.70;;;13.80;;
7957;SDS011;4024;52.172;5.378;2023-12-04T05:57:08;22.23;;;13.77;;
7957;SDS011;4024;52.172;5.378;2023-12-04T05:59:34;17.80;;;12.77;;
7957;SDS011;4024;52.172;5.378;2023-12-04T06:01:59;17.07;;;11.77;;
7957;SDS011;4024;52.172;5.378;2023-12-04T06:04:26;17.50;;;11.90;;
7957;SDS011;4024;52.172;5.378;2023-12-04T06:06:52;17.20;;;11.30;;
7957;SDS011;4024;52.172;5.378;2023-12-04T06:09:18;18.20;;;13.30;;
7957;SDS011;4024;52.172;5.378;2023-12-04T06:11:44;15.27;;;11.70;;
7957;SDS011;4024;52.172;5.378;2023-12-04T06:14:09;18.13;;;12.47;;
7957;SDS011;4024;52.172;5.378;2023-12-04T06:16:35;17.57;;;12.40;;
7957;SDS011;4024;52.172;5.378;2023-12-04T06:19:02;16.90;;;12.20;;
7957;SDS011;4024;52.172;5.378;2023-12-04T06:21:29;17.53;;;12.00;;
7957;SDS011;4024;52.172;5.378;2023-12-04T06:23:55;17.47;;;11.80;;
7957;SDS011;4024;52.172;5.378;2023-12-04T06:26:22;17.97;;;12.03;;
7957;SDS011;4024;52.172;5.378;2023-12-04T06:28:48;17.33;;;11.33;;
7957;SDS011;4024;52.172;5.378;2023-12-04T06:31:14;16.13;;;11.80;;
7957;SDS011;4024;52.172;5.378;2023-12-04T06:33:40;17.57;;;12.53;;
7957;SDS011;4024;52.172;5.378;2023-12-04T06:36:06;15.60;;;11.87;;
7957;SDS011;4024;52.172;5.378;2023-12-04T06:38:39;16.70;;;11.93;;
7957;SDS011;4024;52.172;5.378;2023-12-04T06:41:08;17.30;;;11.40;;
7957;SDS011;4024;52.172;5.378;2023-12-04T06:43:34;18.00;;;11.50;;
7957;SDS011;4024;52.172;5.378;2023-12-04T06:46:00;16.20;;;11.53;;
7957;SDS011;4024;52.172;5.378;2023-12-04T06:48:28;16.70;;;11.87;;
7957;SDS011;4024;52.172;5.378;2023-12-04T06:51:00;16.70;;;12.23;;
7957;SDS011;4024;52.172;5.378;2023-12-04T06:53:25;16.63;;;11.80;;
7957;SDS011;4024;52.172;5.378;2023-12-04T06:55:51;17.50;;;12.97;;
7957;SDS011;4024;52.172;5.378;2023-12-04T06:58:16;15.27;;;11.43;;
7957;SDS011;4024;52.172;5.378;2023-12-04T07:00:42;15.63;;;10.77;;
7957;SDS011;4024;52.172;5.378;2023-12-04T07:03:08;17.27;;;12.10;;
7957;SDS011;4024;52.172;5.378;2023-12-04T07:05:33;16.50;;;11.30;;
7957;SDS011;4024;52.172;5.378;2023-12-04T07:08:01;14.90;;;10.30;;
7957;SDS011;4024;52.172;5.378;2023-12-04T07:10:27;15.60;;;10.87;;
7957;SDS011;4024;52.172;5.378;2023-12-04T07:12:53;14.07;;;11.20;;
7957;SDS011;4024;52.172;5.378;2023-12-04T07:15:19;16.27;;;11.67;;
7957;SDS011;4024;52.172;5.378;2023-12-04T07:17:45;16.13;;;11.00;;
7957;SDS011;4024;52.172;5.378;2023-12-04T07:20:11;16.17;;;11.43;;
7957;SDS011;4024;52.172;5.378;2023-12-04T07:22:37;19.97;;;11.67;;
7957;SDS011;4024;52.172;5.378;2023-12-04T07:25:10;16.00;;;11.20;;
7957;SDS011;4024;52.172;5.378;2023-12-04T07:27:36;13.73;;;10.57;;
7957;SDS011;4024;52.172;5.378;2023-12-04T07:30:04;12.90;;;10.30;;
7957;SDS011;4024;52.172;5.378;2023-12-04T07:32:32;14.53;;;10.70;;
7957;SDS011;4024;52.172;5.378;2023-12-04T07:34:57;13.33;;;10.53;;
7957;SDS011;4024;52.172;5.378;2023-12-04T07:37:25;15.03;;;10.30;;
7957;SDS011;4024;52.172;5.378;2023-12-04T07:39:52;15.00;;;10.50;;
7957;SDS011;4024;52.172;5.378;2023-12-04T07:42:18;14.13;;;10.17;;
7957;SDS011;4024;52.172;5.378;2023-12-04T07:44:44;15.50;;;10.60;;
7957;SDS011;4024;52.172;5.378;2023-12-04T07:47:10;15.53;;;10.83;;
7957;SDS011;4024;52.172;5.378;2023-12-04T07:49:35;15.33;;;10.60;;
7957;SDS011;4024;52.172;5.378;2023-12-04T07:52:01;15.43;;;10.60;;
7957;SDS011;4024;52.172;5.378;2023-12-04T07:54:26;13.53;;;9.93;;
7957;SDS011;4024;52.172;5.378;2023-12-04T07:56:52;13.10;;;10.03;;
7957;SDS011;4024;52.172;5.378;2023-12-04T07:59:18;14.87;;;10.30;;
7957;SDS011;4024;52.172;5.378;2023-12-04T08:01:45;15.37;;;10.80;;
7957;SDS011;4024;52.172;5.378;2023-12-04T08:04:10;12.40;;;9.80;;
7957;SDS011;4024;52.172;5.378;2023-12-04T08:06:36;15.83;;;10.80;;
7957;SDS011;4024;52.172;5.378;2023-12-04T08:09:02;13.47;;;10.10;;
7957;SDS011;4024;52.172;5.378;2023-12-04T08:11:27;12.30;;;10.00;;
7957;SDS011;4024;52.172;5.378;2023-12-04T08:13:53;13.17;;;9.47;;
7957;SDS011;4024;52.172;5.378;2023-12-04T08:16:19;13.93;;;10.07;;
7957;SDS011;4024;52.172;5.378;2023-12-04T08:18:45;11.03;;;8.37;;
7957;SDS011;4024;52.172;5.378;2023-12-04T08:21:11;14.60;;;9.50;;
7957;SDS011;4024;52.172;5.378;2023-12-04T08:23:37;11.97;;;8.80;;
7957;SDS011;4024;52.172;5.378;2023-12-04T08:26:02;12.60;;;9.20;;
7957;SDS011;4024;52.172;5.378;2023-12-04T08:28:29;12.40;;;9.20;;
7957;SDS011;4024;52.172;5.378;2023-12-04T08:30:54;12.83;;;9.70;;
7957;SDS011;4024;52.172;5.378;2023-12-04T08:33:20;13.73;;;9.90;;
7957;SDS011;4024;52.172;5.378;2023-12-04T08:35:46;12.07;;;9.30;;
7957;SDS011;4024;52.172;5.378;2023-12-04T08:38:12;13.00;;;9.57;;
7957;SDS011;4024;52.172;5.378;2023-12-04T08:40:38;12.30;;;9.47;;
7957;SDS011;4024;52.172;5.378;2023-12-04T08:43:03;11.27;;;8.97;;
7957;SDS011;4024;52.172;5.378;2023-12-04T08:45:29;14.73;;;10.03;;
7957;SDS011;4024;52.172;5.378;2023-12-04T08:47:55;11.20;;;8.93;;
7957;SDS011;4024;52.172;5.378;2023-12-04T08:50:20;11.87;;;9.23;;
7957;SDS011;4024;52.172;5.378;2023-12-04T08:52:46;13.77;;;9.57;;
7957;SDS011;4024;52.172;5.378;2023-12-04T08:55:12;11.90;;;9.23;;
7957;SDS011;4024;52.172;5.378;2023-12-04T08:57:37;13.73;;;9.57;;
7957;SDS011;4024;52.172;5.378;2023-12-04T09:00:03;11.87;;;9.03;;
7957;SDS011;4024;52.172;5.378;2023-12-04T09:02:30;10.40;;;8.93;;
7957;SDS011;4024;52.172;5.378;2023-12-04T09:04:56;12.30;;;8.30;;
7957;SDS011;4024;52.172;5.378;2023-12-04T09:07:21;13.37;;;9.50;;
7957;SDS011;4024;52.172;5.378;2023-12-04T09:09:47;12.53;;;9.07;;
7957;SDS011;4024;52.172;5.378;2023-12-04T09:12:13;14.37;;;9.50;;
7957;SDS011;4024;52.172;5.378;2023-12-04T09:14:39;13.97;;;9.67;;
7957;SDS011;4024;52.172;5.378;2023-12-04T09:17:05;11.97;;;8.90;;
7957;SDS011;4024;52.172;5.378;2023-12-04T09:19:30;12.37;;;8.73;;
7957;SDS011;4024;52.172;5.378;2023-12-04T09:21:57;10.47;;;8.80;;
7957;SDS011;4024;52.172;5.378;2023-12-04T09:24:22;11.67;;;8.70;;
7957;SDS011;4024;52.172;5.378;2023-12-04T09:26:48;12.63;;;9.00;;
7957;SDS011;4024;52.172;5.378;2023-12-04T09:29:14;13.03;;;9.10;;
7957;SDS011;4024;52.172;5.378;2023-12-04T09:31:41;12.07;;;9.40;;
7957;SDS011;4024;52.172;5.378;2023-12-04T09:34:07;10.93;;;8.17;;
7957;SDS011;4024;52.172;5.378;2023-12-04T09:36:34;12.10;;;8.80;;
7957;SDS011;4024;52.172;5.378;2023-12-04T09:39:00;13.33;;;9.20;;
7957;SDS011;4024;52.172;5.378;2023-12-04T09:41:25;12.53;;;9.03;;
7957;SDS011;4024;52.172;5.378;2023-12-04T09:43:51;12.10;;;8.17;;
7957;SDS011;4024;52.172;5.378;2023-12-04T09:46:19;10.33;;;8.03;;
7957;SDS011;4024;52.172;5.378;2023-12-04T09:48:45;12.33;;;8.70;;
7957;SDS011;4024;52.172;5.378;2023-12-04T09:51:11;12.30;;;8.67;;
7957;SDS011;4024;52.172;5.378;2023-12-04T09:53:38;12.70;;;8.37;;
7957;SDS011;4024;52.172;5.378;2023-12-04T09:56:06;11.90;;;8.77;;
7957;SDS011;4024;52.172;5.378;2023-12-04T09:58:34;11.03;;;8.33;;
7957;SDS011;4024;52.172;5.378;2023-12-04T10:01:03;12.60;;;8.57;;
7957;SDS011;4024;52.172;5.378;2023-12-04T10:03:29;11.93;;;8.30;;
7957;SDS011;4024;52.172;5.378;2023-12-04T10:05:56;10.43;;;8.03;;
7957;SDS011;4024;52.172;5.378;2023-12-04T10:08:22;12.07;;;7.60;;
7957;SDS011;4024;52.172;5.378;2023-12-04T10:10:48;9.57;;;7.40;;
7957;SDS011;4024;52.172;5.378;2023-12-04T10:13:13;9.37;;;7.73;;
7957;SDS011;4024;52.172;5.378;2023-12-04T10:15:51;10.83;;;8.00;;
7957;SDS011;4024;52.172;5.378;2023-12-04T10:18:24;10.30;;;7.40;;
7957;SDS011;4024;52.172;5.378;2023-12-04T10:20:51;11.37;;;8.53;;
7957;SDS011;4024;52.172;5.378;2023-12-04T10:23:19;9.37;;;7.47;;
7957;SDS011;4024;52.172;5.378;2023-12-04T10:25:45;10.40;;;8.13;;
7957;SDS011;4024;52.172;5.378;2023-12-04T10:28:13;10.60;;;8.03;;
7957;SDS011;4024;52.172;5.378;2023-12-04T10:30:41;10.83;;;8.13;;
7957;SDS011;4024;52.172;5.378;2023-12-04T10:33:07;9.97;;;7.87;;
7957;SDS011;4024;52.172;5.378;2023-12-04T10:35:34;8.63;;;7.33;;
7957;SDS011;4024;52.172;5.378;2023-12-04T10:38:04;13.67;;;8.53;;
7957;SDS011;4024;52.172;5.378;2023-12-04T10:40:31;9.63;;;7.57;;
7957;SDS011;4024;52.172;5.378;2023-12-04T10:45:40;10.20;;;7.30;;
7957;SDS011;4024;52.172;5.378;2023-12-04T10:48:07;9.40;;;8.07;;
7957;SDS011;4024;52.172;5.378;2023-12-04T10:50:34;9.37;;;7.47;;
7957;SDS011;4024;52.172;5.378;2023-12-04T10:53:04;9.60;;;7.80;;
7957;SDS011;4024;52.172;5.378;2023-12-04T10:55:35;13.47;;;7.47;;
7957;SDS011;4024;52.172;5.378;2023-12-04T10:58:02;9.60;;;7.80;;
7957;SDS011;4024;52.172;5.378;2023-12-04T11:00:32;10.10;;;7.67;;
7957;SDS011;4024;52.172;5.378;2023-12-04T11:03:01;10.37;;;7.90;;
7957;SDS011;4024;52.172;5.378;2023-12-04T11:05:32;10.87;;;8.67;;
7957;SDS011;4024;52.172;5.378;2023-12-04T11:08:02;9.73;;;7.73;;
7957;SDS011;4024;52.172;5.378;2023-12-04T11:10:55;11.03;;;8.13;;
7957;SDS011;4024;52.172;5.378;2023-12-04T11:13:26;11.80;;;8.77;;
7957;SDS011;4024;52.172;5.378;2023-12-04T11:16:00;12.63;;;8.60;;
7957;SDS011;4024;52.172;5.378;2023-12-04T11:18:30;11.13;;;8.00;;
7957;SDS011;4024;52.172;5.378;2023-12-04T11:20:58;11.73;;;8.67;;
7957;SDS011;4024;52.172;5.378;2023-12-04T11:23:29;11.37;;;8.87;;
7957;SDS011;4024;52.172;5.378;2023-12-04T11:25:56;9.67;;;8.13;;
7957;SDS011;4024;52.172;5.378;2023-12-04T11:28:22;11.53;;;8.53;;
7957;SDS011;4024;52.172;5.378;2023-12-04T11:30:49;10.83;;;8.30;;
7957;SDS011;4024;52.172;5.378;2023-12-04T11:33:15;9.10;;;7.70;;
7957;SDS011;4024;52.172;5.378;2023-12-04T11:35:42;10.60;;;8.37;;
7957;SDS011;4024;52.172;5.378;2023-12-04T11:38:12;12.47;;;9.10;;
7957;SDS011;4024;52.172;5.378;2023-12-04T11:40:39;14.00;;;9.33;;
7957;SDS011;4024;52.172;5.378;2023-12-04T11:43:26;10.60;;;8.53;;
7957;SDS011;4024;52.172;5.378;2023-12-04T11:45:55;12.37;;;9.20;;
7957;SDS011;4024;52.172;5.378;2023-12-04T11:48:33;13.27;;;9.73;;
7957;SDS011;4024;52.172;5.378;2023-12-04T11:50:59;11.57;;;8.67;;
7957;SDS011;4024;52.172;5.378;2023-12-04T11:53:25;13.40;;;9.20;;
7957;SDS011;4024;52.172;5.378;2023-12-04T11:55:52;12.30;;;9.33;;
7957;SDS011;4024;52.172;5.378;2023-12-04T11:58:21;12.87;;;9.57;;
7957;SDS011;4024;52.172;5.378;2023-12-04T12:00:47;12.73;;;9.47;;
7957;SDS011;4024;52.172;5.378;2023-12-04T12:03:14;13.87;;;9.70;;
7957;SDS011;4024;52.172;5.378;2023-12-04T12:05:40;12.13;;;8.97;;
7957;SDS011;4024;52.172;5.378;2023-12-04T12:08:06;12.50;;;10.03;;
7957;SDS011;4024;52.172;5.378;2023-12-04T12:10:33;13.43;;;9.20;;
7957;SDS011;4024;52.172;5.378;2023-12-04T12:12:59;13.90;;;9.90;;
7957;SDS011;4024;52.172;5.378;2023-12-04T12:15:26;15.07;;;10.40;;
7957;SDS011;4024;52.172;5.378;2023-12-04T12:17:52;15.50;;;10.20;;
7957;SDS011;4024;52.172;5.378;2023-12-04T12:20:19;13.17;;;9.57;;
7957;SDS011;4024;52.172;5.378;2023-12-04T12:22:47;15.43;;;10.37;;
7957;SDS011;4024;52.172;5.378;2023-12-04T12:25:14;11.60;;;9.60;;
7957;SDS011;4024;52.172;5.378;2023-12-04T12:27:40;13.40;;;10.20;;
7957;SDS011;4024;52.172;5.378;2023-12-04T12:30:06;12.47;;;9.83;;
7957;SDS011;4024;52.172;5.378;2023-12-04T12:32:35;14.43;;;9.73;;
7957;SDS011;4024;52.172;5.378;2023-12-04T12:35:01;12.13;;;10.00;;
7957;SDS011;4024;52.172;5.378;2023-12-04T12:37:28;15.83;;;10.27;;
7957;SDS011;4024;52.172;5.378;2023-12-04T12:39:54;11.80;;;9.93;;
7957;SDS011;4024;52.172;5.378;2023-12-04T12:42:21;13.27;;;10.03;;
7957;SDS011;4024;52.172;5.378;2023-12-04T12:44:50;13.10;;;9.60;;
7957;SDS011;4024;52.172;5.378;2023-12-04T12:47:16;12.83;;;9.93;;
7957;SDS011;4024;52.172;5.378;2023-12-04T12:49:42;11.93;;;9.37;;
7957;SDS011;4024;52.172;5.378;2023-12-04T12:52:09;11.20;;;8.93;;
7957;SDS011;4024;52.172;5.378;2023-12-04T12:54:42;14.43;;;10.80;;
7957;SDS011;4024;52.172;5.378;2023-12-04T12:57:09;14.80;;;10.53;;
7957;SDS011;4024;52.172;5.378;2023-12-04T12:59:37;13.37;;;9.90;;
7957;SDS011;4024;52.172;5.378;2023-12-04T13:02:06;11.73;;;9.80;;
7957;SDS011;4024;52.172;5.378;2023-12-04T13:04:36;13.47;;;10.70;;
7957;SDS011;4024;52.172;5.378;2023-12-04T13:07:08;13.37;;;10.37;;
7957;SDS011;4024;52.172;5.378;2023-12-04T13:09:34;15.43;;;10.93;;
7957;SDS011;4024;52.172;5.378;2023-12-04T13:12:03;13.07;;;10.07;;
7957;SDS011;4024;52.172;5.378;2023-12-04T13:14:30;12.90;;;9.67;;
7957;SDS011;4024;52.172;5.378;2023-12-04T13:16:56;13.20;;;10.03;;
7957;SDS011;4024;52.172;5.378;2023-12-04T13:19:22;14.17;;;11.03;;
7957;SDS011;4024;52.172;5.378;2023-12-04T13:21:48;13.77;;;10.87;;
7957;SDS011;4024;52.172;5.378;2023-12-04T13:24:14;11.63;;;9.03;;
7957;SDS011;4024;52.172;5.378;2023-12-04T13:26:40;14.10;;;10.43;;
7957;SDS011;4024;52.172;5.378;2023-12-04T13:29:06;13.43;;;10.17;;
7957;SDS011;4024;52.172;5.378;2023-12-04T13:31:32;16.00;;;10.47;;
7957;SDS011;4024;52.172;5.378;2023-12-04T13:33:58;14.97;;;10.70;;
7957;SDS011;4024;52.172;5.378;2023-12-04T13:36:24;13.63;;;10.30;;
7957;SDS011;4024;52.172;5.378;2023-12-04T13:38:50;12.13;;;9.57;;
7957;SDS011;4024;52.172;5.378;2023-12-04T13:41:16;13.30;;;9.57;;
7957;SDS011;4024;52.172;5.378;2023-12-04T13:44:00;12.77;;;9.53;;
7957;SDS011;4024;52.172;5.378;2023-12-04T13:46:27;14.27;;;10.83;;
7957;SDS011;4024;52.172;5.378;2023-12-04T13:48:55;14.40;;;9.50;;
7957;SDS011;4024;52.172;5.378;2023-12-04T13:51:21;13.67;;;9.97;;
7957;SDS011;4024;52.172;5.378;2023-12-04T13:53:47;16.33;;;10.60;;
7957;SDS011;4024;52.172;5.378;2023-12-04T13:56:15;11.97;;;10.03;;
7957;SDS011;4024;52.172;5.378;2023-12-04T13:58:49;17.63;;;10.67;;
7957;SDS011;4024;52.172;5.378;2023-12-04T14:01:25;12.27;;;9.93;;
7957;SDS011;4024;52.172;5.378;2023-12-04T14:03:53;13.10;;;10.70;;
7957;SDS011;4024;52.172;5.378;2023-12-04T14:06:25;13.47;;;10.63;;
7957;SDS011;4024;52.172;5.378;2023-12-04T14:08:51;13.40;;;10.00;;
7957;SDS011;4024;52.172;5.378;2023-12-04T14:11:16;13.33;;;9.90;;
7957;SDS011;4024;52.172;5.378;2023-12-04T14:13:42;13.43;;;10.27;;
7957;SDS011;4024;52.172;5.378;2023-12-04T14:16:08;15.97;;;10.40;;
7957;SDS011;4024;52.172;5.378;2023-12-04T14:18:34;12.40;;;10.17;;
7957;SDS011;4024;52.172;5.378;2023-12-04T14:21:00;13.80;;;10.23;;
7957;SDS011;4024;52.172;5.378;2023-12-04T14:23:25;12.03;;;9.97;;
7957;SDS011;4024;52.172;5.378;2023-12-04T14:25:51;13.57;;;10.23;;
7957;SDS011;4024;52.172;5.378;2023-12-04T14:28:17;13.57;;;9.90;;
7957;SDS011;4024;52.172;5.378;2023-12-04T14:30:42;12.40;;;10.23;;
7957;SDS011;4024;52.172;5.378;2023-12-04T14:33:09;13.83;;;9.87;;
7957;SDS011;4024;52.172;5.378;2023-12-04T14:35:35;13.97;;;10.10;;
7957;SDS011;4024;52.172;5.378;2023-12-04T14:38:02;12.97;;;9.43;;
7957;SDS011;4024;52.172;5.378;2023-12-04T14:40:30;12.67;;;9.93;;
7957;SDS011;4024;52.172;5.378;2023-12-04T14:42:56;16.67;;;10.30;;
7957;SDS011;4024;52.172;5.378;2023-12-04T14:45:22;13.07;;;9.97;;
7957;SDS011;4024;52.172;5.378;2023-12-04T14:47:47;13.10;;;10.67;;
7957;SDS011;4024;52.172;5.378;2023-12-04T14:50:16;13.13;;;10.20;;
7957;SDS011;4024;52.172;5.378;2023-12-04T14:52:42;13.60;;;10.23;;